createdAt,value
2023-05-11T00:05:26.422Z,6.09
2023-05-11T00:08:28.942Z,6.05
2023-05-11T00:11:31.384Z,6.03
2023-05-11T00:14:33.478Z,6.00
2023-05-11T00:17:35.732Z,5.95
2023-05-11T00:20:37.910Z,5.93
2023-05-11T00:23:39.881Z,5.94
2023-05-11T00:26:41.967Z,5.94
2023-05-11T00:29:44.173Z,5.90
2023-05-11T00:32:46.561Z,5.86
2023-05-11T00:35:51.167Z,5.83
2023-05-11T00:38:53.276Z,5.80
2023-05-11T00:41:56.906Z,5.77
2023-05-11T00:44:59.308Z,5.75
2023-05-11T00:48:03.454Z,5.75
2023-05-11T00:51:06.883Z,5.76
2023-05-11T00:54:14.888Z,5.75
2023-05-11T00:57:17.594Z,5.75
2023-05-11T01:00:20.185Z,5.74
2023-05-11T01:03:23.465Z,5.72
2023-05-11T01:06:35.441Z,5.71
2023-05-11T01:10:03.547Z,5.68
2023-05-11T01:13:53.209Z,5.66
2023-05-11T01:16:59.362Z,5.64
2023-05-11T01:20:05.898Z,5.62
2023-05-11T01:23:08.501Z,5.61
2023-05-11T01:26:22.188Z,5.60
2023-05-11T01:30:15.586Z,5.59
2023-05-11T01:33:24.788Z,5.58
2023-05-11T01:36:33.907Z,5.57
2023-05-11T01:39:42.367Z,5.56
2023-05-11T01:42:48.607Z,5.56
2023-05-11T01:45:53.345Z,5.58
2023-05-11T01:48:57.760Z,5.60
2023-05-11T01:52:02.571Z,5.61
2023-05-11T01:55:06.896Z,5.62
2023-05-11T01:58:13.474Z,5.63
2023-05-11T02:05:28.444Z,5.63
2023-05-11T02:08:32.986Z,5.70
2023-05-11T02:11:37.563Z,5.74
2023-05-11T02:14:41.524Z,5.78
2023-05-11T02:17:43.735Z,5.82
2023-05-11T02:20:47.710Z,5.90
2023-05-11T02:23:51.492Z,5.97
2023-05-11T02:26:53.889Z,6.03
2023-05-11T02:29:56.468Z,6.11
2023-05-11T02:33:06.080Z,6.20
2023-05-11T02:36:10.742Z,6.31
2023-05-11T02:39:19.089Z,6.42
2023-05-11T02:42:23.473Z,6.48
2023-05-11T02:45:31.496Z,6.56
2023-05-11T02:48:45.285Z,6.64
2023-05-11T02:51:50.183Z,6.72
2023-05-11T02:54:53.884Z,6.80
2023-05-11T02:57:56.325Z,6.87
2023-05-11T03:01:00.224Z,6.94
2023-05-11T03:04:05.447Z,7.00
2023-05-11T03:07:08.952Z,7.06
2023-05-11T03:10:11.186Z,7.12
2023-05-11T03:13:16.444Z,7.19
2023-05-11T03:16:21.514Z,7.25
2023-05-11T03:19:24.577Z,7.29
2023-05-11T03:22:27.418Z,7.31
2023-05-11T03:25:30.479Z,7.34
2023-05-11T03:28:36.111Z,7.35
2023-05-11T03:31:41.233Z,7.38
2023-05-11T03:34:43.416Z,7.40
2023-05-11T03:37:51.153Z,7.42
2023-05-11T03:40:55.730Z,7.49
2023-05-11T03:44:00.603Z,7.57
2023-05-11T03:47:03.699Z,7.68
2023-05-11T03:50:08.743Z,7.79
2023-05-11T03:53:11.945Z,7.93
2023-05-11T03:56:14.015Z,8.09
2023-05-11T03:59:16.845Z,8.25
2023-05-11T04:05:09.532Z,8.51
2023-05-11T04:08:12.932Z,8.68
2023-05-11T04:11:15.376Z,8.84
2023-05-11T04:14:18.181Z,8.98
2023-05-11T04:17:20.330Z,9.13
2023-05-11T04:20:22.523Z,9.30
2023-05-11T04:23:24.766Z,9.44
2023-05-11T04:26:27.156Z,9.57
2023-05-11T04:29:29.206Z,9.63
2023-05-11T04:32:31.651Z,9.66
2023-05-11T04:35:33.960Z,9.69
2023-05-11T04:38:36.438Z,9.72
2023-05-11T04:41:39.281Z,9.77
2023-05-11T04:44:43.278Z,9.82
2023-05-11T04:47:48.644Z,9.87
2023-05-11T04:50:51.375Z,9.90
2023-05-11T04:53:54.573Z,9.94
2023-05-11T04:56:57.008Z,9.95
2023-05-11T04:59:59.360Z,9.97
2023-05-11T05:06:53.938Z,10.14
2023-05-11T05:09:56.129Z,10.25
2023-05-11T05:12:59.276Z,10.38
2023-05-11T05:16:01.944Z,10.48
2023-05-11T05:19:04.334Z,10.57
2023-05-11T05:22:07.519Z,10.63
2023-05-11T05:25:10.903Z,10.68
2023-05-11T05:28:13.381Z,10.75
2023-05-11T05:31:15.845Z,10.80
2023-05-11T05:34:18.721Z,10.87
2023-05-11T05:37:21.075Z,10.95
2023-05-11T05:40:23.443Z,11.07
2023-05-11T05:43:29.335Z,11.21
2023-05-11T05:46:31.663Z,11.39
2023-05-11T05:49:34.777Z,11.63
2023-05-11T05:52:38.277Z,11.87
2023-05-11T05:55:42.904Z,12.04
2023-05-11T05:58:45.635Z,12.12
2023-05-11T06:05:08.338Z,12.11
2023-05-11T06:08:11.486Z,12.11
2023-05-11T06:11:14.865Z,12.15
2023-05-11T06:14:17.632Z,12.21
2023-05-11T06:17:20.246Z,12.29
2023-05-11T06:20:23.727Z,12.44
2023-05-11T06:23:26.127Z,12.62
2023-05-11T06:26:29.338Z,12.80
2023-05-11T06:29:31.766Z,12.95
2023-05-11T06:32:35.862Z,13.03
2023-05-11T06:35:38.548Z,13.07
2023-05-11T06:38:43.129Z,13.13
2023-05-11T06:41:46.434Z,13.18
2023-05-11T06:44:49.737Z,13.21
2023-05-11T06:47:51.994Z,13.21
2023-05-11T06:50:57.610Z,13.30
2023-05-11T06:54:00.217Z,13.34
2023-05-11T06:57:05.387Z,13.35
2023-05-11T07:00:08.570Z,13.37
2023-05-11T07:03:10.766Z,13.39
2023-05-11T07:06:12.969Z,13.33
2023-05-11T07:09:15.163Z,13.29
2023-05-11T07:12:17.634Z,13.32
2023-05-11T07:15:20.139Z,13.39
2023-05-11T07:18:22.417Z,13.44
2023-05-11T07:21:25.020Z,13.55
2023-05-11T07:24:28.646Z,13.61
2023-05-11T07:27:32.176Z,13.56
2023-05-11T07:30:35.676Z,13.63
2023-05-11T07:33:38.812Z,13.79
2023-05-11T07:36:41.091Z,13.90
2023-05-11T07:39:43.103Z,13.95
2023-05-11T07:42:45.145Z,13.94
2023-05-11T07:45:47.572Z,13.97
2023-05-11T07:48:51.641Z,14.07
2023-05-11T07:54:44.129Z,14.21
2023-05-11T07:57:46.250Z,14.36
2023-05-11T08:00:48.393Z,14.52
2023-05-11T08:03:50.461Z,14.63
2023-05-11T08:06:53.037Z,14.76
2023-05-11T08:09:55.368Z,14.78
2023-05-11T08:12:57.622Z,14.76
2023-05-11T08:15:59.868Z,14.78
2023-05-11T08:19:02.114Z,14.72
2023-05-11T08:22:04.767Z,14.64
2023-05-11T08:25:07.861Z,14.65
2023-05-11T08:28:09.941Z,14.81
2023-05-11T08:31:14.602Z,15.04
2023-05-11T08:34:20.170Z,15.31
2023-05-11T08:37:23.720Z,15.67
2023-05-11T08:40:28.238Z,16.05
2023-05-11T08:43:30.708Z,16.39
2023-05-11T08:46:35.969Z,16.60
2023-05-11T08:49:38.668Z,16.67
2023-05-11T08:52:41.220Z,16.81
2023-05-11T08:55:44.532Z,17.02
2023-05-11T08:58:47.605Z,17.22
2023-05-11T09:01:51.462Z,17.36
2023-05-11T09:04:54.648Z,17.49
2023-05-11T09:08:02.338Z,17.60
2023-05-11T09:11:05.307Z,17.69
2023-05-11T09:14:07.381Z,17.94
2023-05-11T09:17:09.918Z,18.25
2023-05-11T09:20:12.703Z,18.38
2023-05-11T09:23:18.282Z,18.68
2023-05-11T09:26:21.737Z,18.99
2023-05-11T09:29:23.964Z,19.11
2023-05-11T09:32:26.781Z,19.05
2023-05-11T09:35:32.934Z,18.89
2023-05-11T09:38:35.094Z,18.93
2023-05-11T09:41:37.129Z,18.88
2023-05-11T09:44:39.232Z,18.67
2023-05-11T09:47:41.698Z,18.64
2023-05-11T09:50:44.073Z,18.83
2023-05-11T09:53:46.434Z,19.13
2023-05-11T09:56:50.980Z,19.38
2023-05-11T09:59:54.594Z,19.57
2023-05-11T10:05:14.076Z,19.66
2023-05-11T10:08:16.954Z,19.20
2023-05-11T10:11:26.056Z,18.62
2023-05-11T10:14:29.873Z,18.40
2023-05-11T10:17:33.603Z,18.35
2023-05-11T10:20:36.011Z,18.44
2023-05-11T10:23:39.173Z,18.61
2023-05-11T10:26:41.705Z,18.61
2023-05-11T10:29:45.981Z,18.42
2023-05-11T10:32:48.304Z,18.48
2023-05-11T10:35:53.403Z,18.53
2023-05-11T10:38:56.787Z,18.41
2023-05-11T10:42:37.754Z,18.54
2023-05-11T10:45:42.760Z,18.79
2023-05-11T10:49:07.542Z,19.26
2023-05-11T10:52:39.700Z,19.75
2023-05-11T10:56:10.777Z,20.29
2023-05-11T10:59:28.384Z,20.53
2023-05-11T11:02:34.339Z,20.62
2023-05-11T11:05:39.317Z,20.94
2023-05-11T11:08:57.351Z,21.06
2023-05-11T11:12:09.339Z,20.88
2023-05-11T11:15:11.979Z,20.95
2023-05-11T11:18:27.619Z,21.67
2023-05-11T11:21:41.936Z,22.59
2023-05-11T11:24:45.892Z,23.11
2023-05-11T11:27:51.506Z,23.17
2023-05-11T11:31:23.104Z,22.80
2023-05-11T11:34:25.829Z,21.99
2023-05-11T11:37:28.540Z,21.53
2023-05-11T11:40:49.463Z,21.63
2023-05-11T11:43:55.766Z,21.84
2023-05-11T11:47:20.509Z,21.70
2023-05-11T11:50:28.804Z,21.39
2023-05-11T11:53:41.265Z,21.58
2023-05-11T11:56:45.296Z,22.05
2023-05-11T11:59:48.775Z,22.82
2023-05-11T12:02:51.984Z,23.32
2023-05-11T12:06:01.986Z,23.47
2023-05-11T12:09:05.645Z,23.63
2023-05-11T12:12:09.914Z,23.60
2023-05-11T12:15:30.543Z,23.40
2023-05-11T12:18:33.535Z,23.17
2023-05-11T12:21:36.284Z,22.91
2023-05-11T12:24:39.693Z,22.60
2023-05-11T12:27:50.743Z,22.41
2023-05-11T12:30:59.118Z,22.14
2023-05-11T12:34:03.298Z,21.77
2023-05-11T12:37:07.054Z,21.48
2023-05-11T12:40:11.725Z,21.38
2023-05-11T12:43:18.386Z,21.67
2023-05-11T12:46:21.893Z,22.52
2023-05-11T12:49:27.295Z,23.26
2023-05-11T12:52:29.535Z,23.89
2023-05-11T12:55:31.745Z,24.42
2023-05-11T12:58:38.655Z,24.77
2023-05-11T13:01:40.859Z,25.02
2023-05-11T13:04:43.640Z,25.17
2023-05-11T13:07:46.110Z,25.77
2023-05-11T13:10:49.402Z,26.49
2023-05-11T13:13:57.385Z,27.31
2023-05-11T13:16:59.599Z,28.30
2023-05-11T13:20:21.975Z,28.96
2023-05-11T13:23:24.030Z,28.50
2023-05-11T13:26:30.277Z,28.01
2023-05-11T13:29:32.571Z,28.12
2023-05-11T13:32:34.725Z,27.57
2023-05-11T13:35:44.371Z,26.53
2023-05-11T13:38:46.569Z,25.35
2023-05-11T13:41:49.075Z,24.33
2023-05-11T13:44:51.265Z,23.69
2023-05-11T13:47:55.754Z,23.69
2023-05-11T13:50:59.556Z,24.14
2023-05-11T13:54:03.043Z,24.45
2023-05-11T13:57:05.926Z,25.07
2023-05-11T14:00:10.006Z,26.12
2023-05-11T14:05:08.917Z,26.59
2023-05-11T14:08:12.421Z,26.39
2023-05-11T14:11:14.500Z,26.42
2023-05-11T14:14:17.195Z,26.40
2023-05-11T14:17:19.403Z,26.85
2023-05-11T14:20:21.716Z,27.68
2023-05-11T14:23:23.806Z,28.43
2023-05-11T14:26:25.962Z,28.78
2023-05-11T14:29:28.031Z,28.52
2023-05-11T14:32:30.555Z,27.97
2023-05-11T14:35:33.026Z,27.28
2023-05-11T14:38:35.032Z,27.14
2023-05-11T14:41:37.142Z,27.38
2023-05-11T14:44:39.660Z,27.36
2023-05-11T14:47:42.363Z,27.32
2023-05-11T14:50:44.881Z,27.98
2023-05-11T14:53:47.194Z,28.77
2023-05-11T14:56:54.042Z,29.40
2023-05-11T15:00:00.109Z,29.77
2023-05-11T15:03:03.404Z,29.90
2023-05-11T15:06:06.028Z,29.91
2023-05-11T15:09:08.203Z,29.99
2023-05-11T15:12:10.479Z,30.33
2023-05-11T15:15:12.834Z,30.68
2023-05-11T15:21:57.013Z,30.88
2023-05-11T15:24:59.534Z,30.71
2023-05-11T15:28:02.021Z,30.56
2023-05-11T15:31:04.175Z,30.61
2023-05-11T15:34:07.170Z,30.64
2023-05-11T15:37:11.848Z,30.06
2023-05-11T15:40:14.097Z,28.90
2023-05-11T15:43:16.278Z,27.99
2023-05-11T15:46:18.792Z,27.25
2023-05-11T15:49:21.016Z,26.87
2023-05-11T15:52:23.205Z,26.82
2023-05-11T15:55:27.119Z,26.90
2023-05-11T15:58:30.605Z,26.99
2023-05-11T16:01:32.906Z,26.73
2023-05-11T16:04:36.002Z,26.39
2023-05-11T16:07:39.292Z,26.27
2023-05-11T16:10:42.196Z,26.33
2023-05-11T16:13:44.292Z,26.56
2023-05-11T16:16:47.000Z,26.75
2023-05-11T16:19:49.451Z,26.87
2023-05-11T16:22:51.647Z,26.85
2023-05-11T16:25:54.012Z,26.72
2023-05-11T16:28:56.584Z,26.91
2023-05-11T16:31:58.860Z,26.90
2023-05-11T16:35:01.847Z,26.39
2023-05-11T16:38:04.296Z,25.42
2023-05-11T16:41:06.588Z,24.74
2023-05-11T16:44:08.821Z,24.65
2023-05-11T16:47:11.042Z,24.44
2023-05-11T16:50:18.692Z,24.04
2023-05-11T16:53:27.883Z,23.28
2023-05-11T16:56:30.261Z,22.66
2023-05-11T16:59:35.019Z,22.48
2023-05-11T17:02:37.584Z,22.48
2023-05-11T17:05:40.211Z,22.48
2023-05-11T17:08:42.214Z,22.40
2023-05-11T17:11:44.433Z,22.12
2023-05-11T17:14:46.632Z,21.79
2023-05-11T17:17:49.215Z,21.53
2023-05-11T17:24:40.222Z,20.65
2023-05-11T17:27:42.737Z,20.01
2023-05-11T17:30:48.656Z,19.35
2023-05-11T17:33:51.714Z,18.77
2023-05-11T17:36:54.834Z,18.22
2023-05-11T17:39:57.184Z,17.73
2023-05-11T17:42:59.791Z,17.33
2023-05-11T17:46:04.234Z,16.98
2023-05-11T17:49:06.961Z,16.64
2023-05-11T17:52:10.080Z,16.34
2023-05-11T17:55:12.499Z,16.10
2023-05-11T17:58:14.478Z,15.88
2023-05-11T18:05:11.086Z,15.44
2023-05-11T18:08:14.405Z,15.26
2023-05-11T18:14:34.373Z,14.86
2023-05-11T18:17:36.639Z,14.65
2023-05-11T18:21:42.808Z,14.52
2023-05-11T18:24:45.113Z,14.46
2023-05-11T22:05:08.256Z,10.01
2023-05-11T22:08:15.534Z,10.00
2023-05-11T22:11:19.900Z,9.97
2023-05-11T22:14:24.323Z,9.95
2023-05-11T22:17:26.658Z,9.94
2023-05-11T22:20:28.958Z,9.96
2023-05-11T22:23:31.626Z,10.03
2023-05-11T22:26:33.797Z,10.11
2023-05-11T22:29:36.608Z,10.19
2023-05-11T22:32:38.770Z,10.24
2023-05-11T22:35:41.028Z,10.29
2023-05-11T22:38:43.438Z,10.32
2023-05-11T22:41:45.716Z,10.33
2023-05-11T22:44:48.058Z,10.33
2023-05-11T22:47:50.484Z,10.33
2023-05-11T22:50:52.878Z,10.31
2023-05-11T22:53:55.716Z,10.28
2023-05-11T22:56:57.869Z,10.25
2023-05-11T22:59:59.919Z,10.22
2023-05-11T23:03:03.195Z,10.19
2023-05-11T23:06:05.373Z,10.14
2023-05-11T23:09:08.116Z,10.10
2023-05-11T23:12:10.392Z,10.08
2023-05-11T23:15:12.411Z,10.06
2023-05-11T23:18:14.692Z,10.05
2023-05-11T23:21:16.945Z,10.03
2023-05-11T23:24:19.021Z,10.01
2023-05-11T23:27:22.351Z,9.96
2023-05-11T23:33:59.785Z,9.87
2023-05-11T23:37:01.929Z,9.78
2023-05-11T23:40:06.072Z,9.70
2023-05-11T23:43:09.128Z,9.63
2023-05-11T23:46:11.713Z,9.56
2023-05-11T23:49:14.128Z,9.50
2023-05-11T23:52:16.574Z,9.44
2023-05-11T23:55:19.026Z,9.38
2023-05-11T23:58:21.387Z,9.31
